createdAt,value
2019-02-02T06:12:41.791Z,24.80
2019-02-02T06:15:10.866Z,29.83
2019-02-02T06:17:40.760Z,29.07
2019-02-02T06:20:10.850Z,28.60
2019-02-02T06:22:39.732Z,27.70
2019-02-02T06:25:09.970Z,26.37
2019-02-02T06:27:38.824Z,22.03
2019-02-02T06:30:11.296Z,27.10
2019-02-02T06:32:40.196Z,27.37
2019-02-02T06:35:10.893Z,23.53
2019-02-02T06:37:40.405Z,25.63
2019-02-02T06:40:10.555Z,26.83
2019-02-02T06:42:40.153Z,25.60
2019-02-02T06:45:12.800Z,26.33
2019-02-02T06:47:42.087Z,26.80
2019-02-02T06:50:13.211Z,25.87
2019-02-02T06:52:41.931Z,27.00
2019-02-02T06:55:11.941Z,26.43
2019-02-02T06:57:40.562Z,25.97
2019-02-02T07:00:16.216Z,26.73
2019-02-02T07:02:41.458Z,26.40
2019-02-02T07:05:10.272Z,25.03
2019-02-02T07:07:39.680Z,26.50
2019-02-02T07:10:09.924Z,26.73
2019-02-02T07:12:38.464Z,26.00
2019-02-02T07:15:09.440Z,25.60
2019-02-02T07:17:38.148Z,25.87
2019-02-02T07:20:08.859Z,26.27
2019-02-02T07:22:38.278Z,23.57
2019-02-02T07:25:07.302Z,25.43
2019-02-02T07:27:36.448Z,24.83
2019-02-02T07:30:07.145Z,22.30
2019-02-02T07:32:35.562Z,25.37
2019-02-02T07:35:04.855Z,26.93
2019-02-02T07:37:34.181Z,26.87
2019-02-02T07:40:03.416Z,25.57
2019-02-02T07:42:32.389Z,26.33
2019-02-02T07:45:01.141Z,25.90
2019-02-02T07:47:31.402Z,25.87
2019-02-02T07:50:01.331Z,26.30
2019-02-02T07:52:30.687Z,27.77
2019-02-02T07:54:59.491Z,27.83
2019-02-02T07:57:28.543Z,28.67
2019-02-02T07:59:57.408Z,27.30
2019-02-02T08:02:26.259Z,28.17
2019-02-02T08:04:55.432Z,27.60
2019-02-02T08:07:24.391Z,28.33
2019-02-02T08:09:53.525Z,27.87
2019-02-02T08:12:23.820Z,28.23
2019-02-02T08:14:52.888Z,27.60
2019-02-02T08:17:22.665Z,27.17
2019-02-02T08:19:51.492Z,27.40
2019-02-02T08:22:20.664Z,27.13
2019-02-02T08:24:49.874Z,27.10
2019-02-02T08:27:22.321Z,27.47
2019-02-02T08:29:51.385Z,28.20
2019-02-02T08:32:20.624Z,27.80
2019-02-02T08:34:49.331Z,29.27
2019-02-02T08:37:18.157Z,27.37
2019-02-02T08:39:47.628Z,27.70
2019-02-02T08:42:16.849Z,26.17
2019-02-02T08:44:46.548Z,27.03
2019-02-02T08:47:15.654Z,27.67
2019-02-02T08:49:44.852Z,28.87
2019-02-02T08:52:13.974Z,27.90
2019-02-02T08:54:43.607Z,27.10
2019-02-02T08:57:12.631Z,27.10
2019-02-02T08:59:41.540Z,26.03
2019-02-02T09:02:10.708Z,23.10
2019-02-02T09:04:41.004Z,28.90
2019-02-02T09:07:10.400Z,27.57
2019-02-02T09:09:38.820Z,27.73
2019-02-02T09:12:08.647Z,28.30
2019-02-02T09:14:37.363Z,28.97
2019-02-02T09:17:06.556Z,29.37
2019-02-02T09:19:35.720Z,29.47
2019-02-02T09:22:07.728Z,29.60
2019-02-02T09:24:36.440Z,29.60
2019-02-02T09:27:05.661Z,28.63
2019-02-02T09:29:35.956Z,29.50
2019-02-02T09:32:05.399Z,28.10
2019-02-02T09:34:34.489Z,30.87
2019-02-02T09:37:03.717Z,29.40
2019-02-02T09:39:32.837Z,6.83
2019-02-02T09:42:01.640Z,7.07
2019-02-02T09:44:30.686Z,8.77
2019-02-02T09:47:00.025Z,7.10
2019-02-02T09:49:28.917Z,7.23
2019-02-02T09:51:57.607Z,7.83
2019-02-02T09:54:27.385Z,9.07
2019-02-02T09:56:56.548Z,8.20
2019-02-02T09:59:25.459Z,8.33
2019-02-02T10:01:54.159Z,8.17
2019-02-02T10:04:23.616Z,8.73
2019-02-02T10:06:52.456Z,9.10
2019-02-02T10:09:21.484Z,8.47
2019-02-02T10:11:50.401Z,9.37
2019-02-02T10:14:20.565Z,9.90
2019-02-02T10:16:49.382Z,9.80
2019-02-02T10:19:18.313Z,10.03
2019-02-02T10:21:49.675Z,9.70
2019-02-02T10:24:16.447Z,8.83
2019-02-02T10:26:45.166Z,9.90
2019-02-02T10:29:14.405Z,10.40
2019-02-02T10:31:43.491Z,10.43
2019-02-02T10:34:13.047Z,9.30
2019-02-02T10:36:42.738Z,12.80
2019-02-02T10:39:11.627Z,9.90
2019-02-02T10:41:41.203Z,10.40
2019-02-02T10:44:09.913Z,9.53
2019-02-02T10:46:44.053Z,9.87
2019-02-02T10:49:13.260Z,9.90
2019-02-02T10:51:42.779Z,9.20
2019-02-02T10:54:11.556Z,8.97
2019-02-02T10:56:41.291Z,9.77
2019-02-02T10:59:10.441Z,9.57
2019-02-02T11:01:50.492Z,9.33
2019-02-02T11:04:08.044Z,9.17
2019-02-02T11:06:36.936Z,8.93
2019-02-02T11:09:09.394Z,8.30
2019-02-02T11:11:38.777Z,8.53
2019-02-02T11:14:08.105Z,8.73
2019-02-02T11:16:37.382Z,8.10
2019-02-02T11:19:06.531Z,8.70
2019-02-02T11:21:35.784Z,8.83
2019-02-02T11:24:05.891Z,9.23
2019-02-02T11:26:35.844Z,8.90
2019-02-02T11:29:05.024Z,8.93
2019-02-02T11:31:33.785Z,8.90
2019-02-02T11:34:03.161Z,8.90
2019-02-02T11:36:33.016Z,11.67
2019-02-02T11:39:02.576Z,9.67
2019-02-02T11:41:31.491Z,10.20
2019-02-02T11:44:00.248Z,9.43
2019-02-02T11:46:29.024Z,9.37
2019-02-02T11:49:05.166Z,9.57
2019-02-02T11:51:34.544Z,9.30
2019-02-02T11:54:03.435Z,12.20
2019-02-02T11:56:32.392Z,8.30
2019-02-02T11:59:01.564Z,9.30
2019-02-02T12:01:30.361Z,9.03
2019-02-02T12:03:59.123Z,8.77
2019-02-02T12:06:28.295Z,8.90
2019-02-02T12:08:57.204Z,8.67
2019-02-02T12:11:26.020Z,8.70
2019-02-02T12:13:56.008Z,8.63
2019-02-02T12:16:25.209Z,8.73
2019-02-02T12:18:54.040Z,9.33
2019-02-02T12:21:22.875Z,8.43
2019-02-02T12:23:52.407Z,8.27
2019-02-02T12:26:21.307Z,9.30
2019-02-02T12:28:50.054Z,7.60
2019-02-02T12:31:19.972Z,7.70
2019-02-02T12:33:49.759Z,8.30
2019-02-02T12:36:18.552Z,7.97
2019-02-02T12:38:47.556Z,7.37
2019-02-02T12:41:17.282Z,7.03
2019-02-02T12:43:46.169Z,7.20
2019-02-02T12:46:14.887Z,7.37
2019-02-02T12:48:44.062Z,7.27
2019-02-02T12:51:13.672Z,6.83
2019-02-02T12:53:42.860Z,6.57
2019-02-02T12:56:12.156Z,7.37
2019-02-02T12:58:41.239Z,6.77
2019-02-02T13:01:10.788Z,7.30
2019-02-02T13:03:40.607Z,6.83
2019-02-02T13:06:09.541Z,6.60
2019-02-02T13:08:38.051Z,6.30
2019-02-02T13:11:06.864Z,5.87
2019-02-02T13:13:35.805Z,6.73
2019-02-02T13:16:04.636Z,6.43
2019-02-02T13:18:33.430Z,5.73
2019-02-02T13:21:02.313Z,5.70
2019-02-02T13:23:31.153Z,5.63
2019-02-02T13:26:05.454Z,5.47
2019-02-02T13:28:29.407Z,5.07
2019-02-02T13:30:58.228Z,6.50
2019-02-02T13:33:27.731Z,4.93
2019-02-02T13:35:56.996Z,5.30
2019-02-02T13:38:26.097Z,4.70
2019-02-02T13:40:55.323Z,5.57
2019-02-02T13:43:24.006Z,4.90
2019-02-02T13:45:52.739Z,6.27
2019-02-02T13:48:21.554Z,4.70
2019-02-02T13:50:50.619Z,6.63
2019-02-02T13:53:21.872Z,6.00
2019-02-02T13:55:50.807Z,4.80
2019-02-02T13:58:19.545Z,4.20
2019-02-02T14:00:48.799Z,5.37
2019-02-02T14:03:17.924Z,5.80
2019-02-02T14:05:46.775Z,5.37
2019-02-02T14:08:15.712Z,7.03
2019-02-02T14:10:44.209Z,4.07
2019-02-02T14:13:13.503Z,3.83
2019-02-02T14:15:42.416Z,4.40
2019-02-02T14:18:11.607Z,3.83
2019-02-02T14:20:40.405Z,3.80
2019-02-02T14:23:09.258Z,3.70
2019-02-02T14:25:38.357Z,3.60
2019-02-02T14:28:07.547Z,5.87
2019-02-02T14:30:37.163Z,4.07
2019-02-02T14:33:13.600Z,6.23
2019-02-02T14:35:35.495Z,3.60
2019-02-02T14:38:04.637Z,3.70
2019-02-02T14:40:33.843Z,3.93
2019-02-02T14:43:02.640Z,4.03
2019-02-02T14:45:32.132Z,3.73
2019-02-02T14:48:01.058Z,3.53
2019-02-02T14:50:32.159Z,6.07
2019-02-02T14:52:59.311Z,4.13
2019-02-02T14:55:29.674Z,4.00
2019-02-02T14:57:58.621Z,6.27
2019-02-02T15:03:03.900Z,4.30
2019-02-02T15:05:42.543Z,4.00
2019-02-02T15:08:01.531Z,3.93
2019-02-02T15:10:30.343Z,4.53
2019-02-02T15:12:59.359Z,4.20
2019-02-02T15:15:28.198Z,4.60
2019-02-02T15:17:57.325Z,4.30
2019-02-02T15:20:28.942Z,4.90
2019-02-02T15:22:58.215Z,3.90
2019-02-02T15:25:27.633Z,4.73
2019-02-02T15:27:56.739Z,4.40
2019-02-02T15:30:26.784Z,4.20
2019-02-02T15:32:55.612Z,4.27
2019-02-02T15:35:24.522Z,4.40
2019-02-02T15:37:53.256Z,4.00
2019-02-02T15:40:22.497Z,4.33
2019-02-02T15:42:51.927Z,4.50
2019-02-02T15:45:22.695Z,5.00
2019-02-02T15:47:52.427Z,4.47
2019-02-02T15:50:21.268Z,4.80
2019-02-02T15:52:50.052Z,4.20
2019-02-02T15:55:21.951Z,5.83
2019-02-02T15:57:50.687Z,4.33
2019-02-02T16:00:23.841Z,6.77
2019-02-02T16:02:52.312Z,4.37
2019-02-02T16:05:21.368Z,4.43
2019-02-02T16:07:51.118Z,4.57
2019-02-02T16:10:21.920Z,4.77
2019-02-02T16:12:51.140Z,4.20
2019-02-02T16:15:20.406Z,4.40
2019-02-02T16:17:50.672Z,4.47
2019-02-02T16:20:21.766Z,4.13
2019-02-02T16:22:51.425Z,4.60
2019-02-02T16:25:20.297Z,4.30
2019-02-02T16:27:49.458Z,4.17
2019-02-02T16:30:21.664Z,4.53
2019-02-02T16:32:50.363Z,4.87
2019-02-02T16:35:19.651Z,4.20
2019-02-02T16:37:48.509Z,4.63
2019-02-02T16:40:20.051Z,4.20
2019-02-02T16:42:49.596Z,4.27
2019-02-02T16:45:20.293Z,4.10
2019-02-02T16:47:54.365Z,4.30
2019-02-02T16:50:23.857Z,3.90
2019-02-02T16:52:52.696Z,4.00
2019-02-02T16:55:22.191Z,4.43
2019-02-02T16:57:52.096Z,4.33
2019-02-02T17:00:23.743Z,4.17
2019-02-02T17:02:52.580Z,4.57
2019-02-02T17:05:21.926Z,4.17
2019-02-02T17:07:51.791Z,4.30
2019-02-02T17:10:22.552Z,5.17
2019-02-02T17:12:51.424Z,4.70
2019-02-02T17:15:20.610Z,4.50
2019-02-02T17:17:49.757Z,4.47
2019-02-02T17:20:22.230Z,4.53
2019-02-02T17:22:51.304Z,6.47
2019-02-02T17:25:22.425Z,4.87
2019-02-02T17:27:49.175Z,4.87
2019-02-02T17:30:22.953Z,5.10
2019-02-02T17:32:54.239Z,5.10
2019-02-02T17:35:23.051Z,4.80
2019-02-02T17:37:51.680Z,5.20
2019-02-02T17:40:22.880Z,5.13
2019-02-02T17:42:51.963Z,4.97
2019-02-02T17:45:21.527Z,5.30
2019-02-02T17:47:50.540Z,5.70
2019-02-02T17:50:21.154Z,5.20
2019-02-02T17:52:51.608Z,5.47
2019-02-02T17:55:20.388Z,5.50
2019-02-02T17:57:49.851Z,5.90
2019-02-02T18:00:24.961Z,5.23
2019-02-02T18:02:53.794Z,5.10
2019-02-02T18:05:22.535Z,6.10
2019-02-02T18:07:52.565Z,5.20
2019-02-02T18:10:21.423Z,5.03
2019-02-02T18:12:50.265Z,5.23
2019-02-02T18:15:20.209Z,5.50
2019-02-02T18:17:49.604Z,6.27
2019-02-02T18:20:18.573Z,5.27
2019-02-02T18:22:48.544Z,5.77
2019-02-02T18:25:18.047Z,5.87
2019-02-02T18:27:48.211Z,5.97
2019-02-02T18:30:19.571Z,6.50
2019-02-02T18:32:49.805Z,6.30
2019-02-02T18:35:18.885Z,5.43
2019-02-02T18:37:48.011Z,8.60
2019-02-02T18:40:19.289Z,5.63
2019-02-02T18:42:48.943Z,5.20
2019-02-02T18:45:19.941Z,5.10
2019-02-02T18:47:49.202Z,5.77
2019-02-02T18:50:18.780Z,5.47
2019-02-02T18:52:47.915Z,5.40
2019-02-02T18:55:23.699Z,5.23
2019-02-02T18:57:52.859Z,5.37
2019-02-02T19:00:22.072Z,5.17
2019-02-02T19:02:51.200Z,5.10
2019-02-02T19:05:19.997Z,5.67
2019-02-02T19:07:49.558Z,5.43
2019-02-02T19:10:23.720Z,5.40
2019-02-02T19:12:52.510Z,5.60
2019-02-02T19:15:21.723Z,5.10
2019-02-02T19:17:50.641Z,5.47
2019-02-02T19:20:21.061Z,5.53
2019-02-02T19:22:49.930Z,5.10
2019-02-02T19:25:19.237Z,5.50
2019-02-02T19:27:48.196Z,5.00
2019-02-02T19:30:21.060Z,5.60
2019-02-02T19:32:50.016Z,6.00
2019-02-02T19:35:18.787Z,5.37
2019-02-02T19:37:49.740Z,6.17
2019-02-02T19:40:18.622Z,5.50
2019-02-02T19:42:47.927Z,5.20
2019-02-02T19:45:18.555Z,5.50
2019-02-02T19:47:48.076Z,5.63
2019-02-02T19:50:18.859Z,6.40
2019-02-02T19:52:48.172Z,7.27
2019-02-02T19:55:17.273Z,6.43
2019-02-02T19:57:46.120Z,6.97
2019-02-02T20:00:17.764Z,7.60
2019-02-02T20:02:46.642Z,7.63
2019-02-02T20:05:27.521Z,7.73
2019-02-02T20:07:44.834Z,7.97
2019-02-02T20:10:15.754Z,8.27
2019-02-02T20:12:44.648Z,8.67
2019-02-02T20:15:15.414Z,8.00
2019-02-02T20:17:45.710Z,8.33
2019-02-02T20:20:16.037Z,7.50
2019-02-02T20:22:45.257Z,8.00
2019-02-02T20:25:14.618Z,6.83
2019-02-02T20:27:43.616Z,7.00
2019-02-02T20:30:15.641Z,7.47
2019-02-02T20:32:44.843Z,7.43
2019-02-02T20:35:13.889Z,6.83
2019-02-02T20:37:43.231Z,6.73
2019-02-02T20:40:15.225Z,7.70
2019-02-02T20:42:44.524Z,7.07
2019-02-02T20:45:16.251Z,6.50
2019-02-02T20:47:45.298Z,7.37
2019-02-02T20:50:16.593Z,7.30
2019-02-02T20:52:47.573Z,7.33
2019-02-02T20:55:17.287Z,7.33
2019-02-02T20:57:47.583Z,7.30
2019-02-02T21:00:18.880Z,7.20
2019-02-02T21:02:51.579Z,8.03
2019-02-02T21:05:20.909Z,7.50
2019-02-02T21:07:50.083Z,8.17
2019-02-02T21:10:20.504Z,8.07
2019-02-02T21:12:49.944Z,8.33
2019-02-02T21:15:19.936Z,8.27
2019-02-02T21:17:49.116Z,8.87
2019-02-02T21:20:20.926Z,8.93
2019-02-02T21:22:49.788Z,9.93
2019-02-02T21:25:25.547Z,8.70
2019-02-02T21:27:54.939Z,9.57
2019-02-02T21:30:26.276Z,9.77
2019-02-02T21:32:55.493Z,10.50
2019-02-02T21:35:24.800Z,9.47
2019-02-02T21:37:54.343Z,10.93
2019-02-02T21:40:25.912Z,11.77
2019-02-02T21:42:55.137Z,10.90
2019-02-02T21:45:24.303Z,11.27
2019-02-02T21:47:54.295Z,12.73
2019-02-02T21:50:23.590Z,12.50
2019-02-02T21:52:52.605Z,12.73
2019-02-02T21:55:23.561Z,26.57
